Lawrenceville, GA

07:25 PM EDT on iulie 31, 2015 (GMT -0400)
Gloster | | Change Station
CLOSE
Current Station
Staţie meteo personală
Location: Lawrenceville, GA
Elevation: 997 ft
Nearby Weather Stations

Elev 997 ft 33.92 °N, 84.07 °W | Updated 13 minutes ago

Cer parţial noros
Cer parţial noros
88.7 °F
Feels Like 85 °F
N
0.0
Vânt variabil Vânt from NNV

astăzi
High -- | Low -- °F
--% Chance of Precip.
Ieri
High -- | Low -- °F
Precip. -- inch
6:47 AM 8:37 PM
Lună plină, 100% visible
Presiunea 29.86 inch
Vizibilitatea 10.0 mile
Nori Nori risipiţi 5500 ft
Cer în general noros 7000 ft
Indicele de căldură 85 °F
Punctul de rouă Not available.
Umiditatea Not available.
Precipitaţii 0.00 inch
Adâncimea zăpezii Not available.
UV 1 out of 12
Pollen 5.40 out of 12
Calitatea aerului Not available.
Flu Activity Not available.
METAR KPDK 312253Z 33009KT 10SM SCT055 BKN070 34/21 A2992 RMK AO2 SLP109 T03390211

More Conditions Fewer Conditions

Presiunea 29.86 inch
Vizibilitatea 10.0 mile
Nori Nori risipiţi 5500 ft
Cer în general noros 7000 ft
Indicele de căldură 85 °F
Punctul de rouă Not available.
Umiditatea Not available.
Precipitaţii 0.00 inch
Adâncimea zăpezii Not available.
UV 1 out of 12
Pollen 5.40 out of 12
Calitatea aerului Not available.
Flu Activity Not available.
METAR KPDK 312253Z 33009KT 10SM SCT055 BKN070 34/21 A2992 RMK AO2 SLP109 T03390211

More Conditions Fewer Conditions

10-Day Weather Forecast

×

Almanac

Astronomie

Jul. 31, 2015 Răsărit Apus
Timpul Actual
Crepusculul Civil
Crepusculul nautic
Răsărit Astronomic
Luna
Durata zilei lumină
Lungimea zilei
Tomorrow will be .
, % of the Moon is Illuminated

Extremele de azi

State Highs State Lows

Community

WunderPhotos

Upload Photos

1,842,767 photos uploaded!

WunderBlogs® & News

Nearby

Calitatea aerului

  Calitatea aerului Index de calitate a aerului Poluat
Not available.

Adâncimea zapezii

Station Depth Elevation

Earthquake Activity

Oraş Distance Mag. Time & Date
Minimum magnitude displayed is 2.5.

Coastal Water Temperatures

Locul Temperatura

Stations

Nearby Weather Stations

Locaţia staţiei Temp Vânt rece Punctul de rouă Umiditatea Vânt Precip. Elev Actualizare Type